sensor_id;sensor_type;location;lat;lon;timestamp;P1;durP1;ratioP1;P2;durP2;ratioP2
52124;SDS011;38119;52.710;6.398;2024-01-06T00:00:16;15.80;;;10.00;;
52124;SDS011;38119;52.710;6.398;2024-01-06T00:02:42;16.40;;;10.45;;
52124;SDS011;38119;52.710;6.398;2024-01-06T00:05:08;15.38;;;10.25;;
52124;SDS011;38119;52.710;6.398;2024-01-06T00:07:36;16.48;;;10.60;;
52124;SDS011;38119;52.710;6.398;2024-01-06T00:10:02;17.48;;;10.23;;
52124;SDS011;38119;52.710;6.398;2024-01-06T00:12:35;22.65;;;14.90;;
52124;SDS011;38119;52.710;6.398;2024-01-06T00:15:00;24.27;;;16.85;;
52124;SDS011;38119;52.710;6.398;2024-01-06T00:17:26;20.63;;;13.57;;
52124;SDS011;38119;52.710;6.398;2024-01-06T00:19:52;17.60;;;11.23;;
52124;SDS011;38119;52.710;6.398;2024-01-06T00:22:18;18.70;;;12.25;;
52124;SDS011;38119;52.710;6.398;2024-01-06T00:24:44;21.48;;;13.75;;
52124;SDS011;38119;52.710;6.398;2024-01-06T00:27:09;21.80;;;14.27;;
52124;SDS011;38119;52.710;6.398;2024-01-06T00:29:35;19.08;;;12.65;;
52124;SDS011;38119;52.710;6.398;2024-01-06T00:32:01;25.35;;;15.82;;
52124;SDS011;38119;52.710;6.398;2024-01-06T00:34:28;23.58;;;15.68;;
52124;SDS011;38119;52.710;6.398;2024-01-06T00:36:54;22.85;;;15.40;;
52124;SDS011;38119;52.710;6.398;2024-01-06T00:39:20;19.13;;;12.25;;
52124;SDS011;38119;52.710;6.398;2024-01-06T00:41:45;20.48;;;14.98;;
52124;SDS011;38119;52.710;6.398;2024-01-06T00:44:11;23.45;;;15.10;;
52124;SDS011;38119;52.710;6.398;2024-01-06T00:46:37;17.92;;;12.77;;
52124;SDS011;38119;52.710;6.398;2024-01-06T00:49:03;17.90;;;12.52;;
52124;SDS011;38119;52.710;6.398;2024-01-06T00:51:29;24.30;;;16.63;;
52124;SDS011;38119;52.710;6.398;2024-01-06T00:53:54;18.50;;;12.70;;
52124;SDS011;38119;52.710;6.398;2024-01-06T00:56:20;21.38;;;14.95;;
52124;SDS011;38119;52.710;6.398;2024-01-06T00:58:46;18.05;;;12.48;;
52124;SDS011;38119;52.710;6.398;2024-01-06T01:01:11;20.40;;;13.85;;
52124;SDS011;38119;52.710;6.398;2024-01-06T01:03:37;18.52;;;12.73;;
52124;SDS011;38119;52.710;6.398;2024-01-06T01:06:03;18.73;;;12.95;;
52124;SDS011;38119;52.710;6.398;2024-01-06T01:08:28;21.17;;;12.70;;
52124;SDS011;38119;52.710;6.398;2024-01-06T01:10:56;20.52;;;12.98;;
52124;SDS011;38119;52.710;6.398;2024-01-06T01:13:22;22.27;;;13.93;;
52124;SDS011;38119;52.710;6.398;2024-01-06T01:15:48;21.00;;;14.00;;
52124;SDS011;38119;52.710;6.398;2024-01-06T01:18:14;23.08;;;14.80;;
52124;SDS011;38119;52.710;6.398;2024-01-06T01:20:39;22.40;;;14.38;;
52124;SDS011;38119;52.710;6.398;2024-01-06T01:23:08;24.38;;;15.10;;
52124;SDS011;38119;52.710;6.398;2024-01-06T01:25:34;24.38;;;15.07;;
52124;SDS011;38119;52.710;6.398;2024-01-06T01:27:59;25.95;;;15.60;;
52124;SDS011;38119;52.710;6.398;2024-01-06T01:30:25;25.92;;;16.10;;
52124;SDS011;38119;52.710;6.398;2024-01-06T01:32:50;23.63;;;14.82;;
52124;SDS011;38119;52.710;6.398;2024-01-06T01:35:16;24.80;;;16.40;;
52124;SDS011;38119;52.710;6.398;2024-01-06T01:37:42;26.63;;;16.15;;
52124;SDS011;38119;52.710;6.398;2024-01-06T01:40:07;23.92;;;15.82;;
52124;SDS011;38119;52.710;6.398;2024-01-06T01:42:33;26.70;;;16.27;;
52124;SDS011;38119;52.710;6.398;2024-01-06T01:44:59;29.33;;;17.92;;
52124;SDS011;38119;52.710;6.398;2024-01-06T01:47:25;28.25;;;17.13;;
52124;SDS011;38119;52.710;6.398;2024-01-06T01:49:52;27.35;;;17.40;;
52124;SDS011;38119;52.710;6.398;2024-01-06T01:52:19;27.48;;;17.63;;
52124;SDS011;38119;52.710;6.398;2024-01-06T01:54:45;28.48;;;16.50;;
52124;SDS011;38119;52.710;6.398;2024-01-06T01:57:12;25.33;;;15.13;;
52124;SDS011;38119;52.710;6.398;2024-01-06T01:59:40;25.35;;;14.75;;
52124;SDS011;38119;52.710;6.398;2024-01-06T02:02:06;25.30;;;14.77;;
52124;SDS011;38119;52.710;6.398;2024-01-06T02:04:33;24.48;;;15.25;;
52124;SDS011;38119;52.710;6.398;2024-01-06T02:06:59;25.17;;;15.07;;
52124;SDS011;38119;52.710;6.398;2024-01-06T02:09:24;27.17;;;15.80;;
52124;SDS011;38119;52.710;6.398;2024-01-06T02:11:54;24.85;;;15.38;;
52124;SDS011;38119;52.710;6.398;2024-01-06T02:14:21;25.75;;;15.02;;
52124;SDS011;38119;52.710;6.398;2024-01-06T02:16:47;24.92;;;15.95;;
52124;SDS011;38119;52.710;6.398;2024-01-06T02:19:12;27.75;;;17.15;;
52124;SDS011;38119;52.710;6.398;2024-01-06T02:21:41;24.25;;;15.25;;
52124;SDS011;38119;52.710;6.398;2024-01-06T02:24:08;25.45;;;15.30;;
52124;SDS011;38119;52.710;6.398;2024-01-06T02:26:34;25.23;;;15.38;;
52124;SDS011;38119;52.710;6.398;2024-01-06T02:28:59;25.83;;;15.48;;
52124;SDS011;38119;52.710;6.398;2024-01-06T02:31:26;23.52;;;14.85;;
52124;SDS011;38119;52.710;6.398;2024-01-06T02:33:52;26.95;;;14.43;;
52124;SDS011;38119;52.710;6.398;2024-01-06T02:36:18;25.50;;;14.85;;
52124;SDS011;38119;52.710;6.398;2024-01-06T02:38:43;24.35;;;14.63;;
52124;SDS011;38119;52.710;6.398;2024-01-06T02:41:09;25.45;;;15.27;;
52124;SDS011;38119;52.710;6.398;2024-01-06T02:43:34;26.15;;;14.70;;
52124;SDS011;38119;52.710;6.398;2024-01-06T02:46:00;24.05;;;14.55;;
52124;SDS011;38119;52.710;6.398;2024-01-06T02:48:25;22.55;;;13.70;;
52124;SDS011;38119;52.710;6.398;2024-01-06T02:50:51;25.80;;;14.07;;
52124;SDS011;38119;52.710;6.398;2024-01-06T02:53:17;24.40;;;14.30;;
52124;SDS011;38119;52.710;6.398;2024-01-06T02:55:42;24.35;;;14.35;;
52124;SDS011;38119;52.710;6.398;2024-01-06T02:58:08;23.23;;;13.60;;
52124;SDS011;38119;52.710;6.398;2024-01-06T03:00:33;26.67;;;14.60;;
52124;SDS011;38119;52.710;6.398;2024-01-06T03:02:59;23.25;;;14.10;;
52124;SDS011;38119;52.710;6.398;2024-01-06T03:05:24;21.75;;;13.02;;
52124;SDS011;38119;52.710;6.398;2024-01-06T03:07:50;23.95;;;14.43;;
52124;SDS011;38119;52.710;6.398;2024-01-06T03:10:15;26.73;;;14.82;;
52124;SDS011;38119;52.710;6.398;2024-01-06T03:12:41;23.38;;;14.35;;
52124;SDS011;38119;52.710;6.398;2024-01-06T03:15:07;24.05;;;14.23;;
52124;SDS011;38119;52.710;6.398;2024-01-06T03:17:33;22.98;;;14.48;;
52124;SDS011;38119;52.710;6.398;2024-01-06T03:19:58;23.75;;;14.52;;
52124;SDS011;38119;52.710;6.398;2024-01-06T03:22:24;21.95;;;13.77;;
52124;SDS011;38119;52.710;6.398;2024-01-06T03:24:49;22.27;;;13.85;;
52124;SDS011;38119;52.710;6.398;2024-01-06T03:27:15;20.77;;;13.13;;
52124;SDS011;38119;52.710;6.398;2024-01-06T03:29:40;21.83;;;12.98;;
52124;SDS011;38119;52.710;6.398;2024-01-06T03:32:06;21.83;;;12.70;;
52124;SDS011;38119;52.710;6.398;2024-01-06T03:34:32;23.02;;;13.27;;
52124;SDS011;38119;52.710;6.398;2024-01-06T03:36:57;22.73;;;13.10;;
52124;SDS011;38119;52.710;6.398;2024-01-06T03:39:23;21.20;;;12.80;;
52124;SDS011;38119;52.710;6.398;2024-01-06T03:41:48;24.08;;;13.45;;
52124;SDS011;38119;52.710;6.398;2024-01-06T03:44:14;20.48;;;12.57;;
52124;SDS011;38119;52.710;6.398;2024-01-06T03:46:40;20.55;;;12.70;;
52124;SDS011;38119;52.710;6.398;2024-01-06T03:49:05;22.83;;;12.82;;
52124;SDS011;38119;52.710;6.398;2024-01-06T03:51:31;21.17;;;12.32;;
52124;SDS011;38119;52.710;6.398;2024-01-06T03:53:56;19.05;;;12.63;;
52124;SDS011;38119;52.710;6.398;2024-01-06T03:56:22;19.73;;;12.60;;
52124;SDS011;38119;52.710;6.398;2024-01-06T03:58:48;20.35;;;12.15;;
52124;SDS011;38119;52.710;6.398;2024-01-06T04:01:13;20.75;;;12.32;;
52124;SDS011;38119;52.710;6.398;2024-01-06T04:03:39;21.20;;;12.75;;
52124;SDS011;38119;52.710;6.398;2024-01-06T04:06:07;20.25;;;12.52;;
52124;SDS011;38119;52.710;6.398;2024-01-06T04:08:33;20.92;;;12.02;;
52124;SDS011;38119;52.710;6.398;2024-01-06T04:11:00;21.35;;;13.00;;
52124;SDS011;38119;52.710;6.398;2024-01-06T04:13:26;23.70;;;13.73;;
52124;SDS011;38119;52.710;6.398;2024-01-06T04:15:51;24.38;;;13.30;;
52124;SDS011;38119;52.710;6.398;2024-01-06T04:18:17;25.08;;;14.20;;
52124;SDS011;38119;52.710;6.398;2024-01-06T04:20:43;27.35;;;13.80;;
52124;SDS011;38119;52.710;6.398;2024-01-06T04:23:08;25.27;;;14.38;;
52124;SDS011;38119;52.710;6.398;2024-01-06T04:25:34;27.02;;;14.70;;
52124;SDS011;38119;52.710;6.398;2024-01-06T04:27:59;26.15;;;14.32;;
52124;SDS011;38119;52.710;6.398;2024-01-06T04:30:25;26.42;;;14.82;;
52124;SDS011;38119;52.710;6.398;2024-01-06T04:32:51;25.98;;;15.00;;
52124;SDS011;38119;52.710;6.398;2024-01-06T04:35:16;25.13;;;14.65;;
52124;SDS011;38119;52.710;6.398;2024-01-06T04:37:42;26.67;;;15.45;;
52124;SDS011;38119;52.710;6.398;2024-01-06T04:40:08;26.52;;;14.80;;
52124;SDS011;38119;52.710;6.398;2024-01-06T04:42:35;27.42;;;15.20;;
52124;SDS011;38119;52.710;6.398;2024-01-06T04:45:00;27.38;;;15.70;;
52124;SDS011;38119;52.710;6.398;2024-01-06T04:47:26;28.92;;;15.82;;
52124;SDS011;38119;52.710;6.398;2024-01-06T04:49:52;27.45;;;15.23;;
52124;SDS011;38119;52.710;6.398;2024-01-06T04:52:18;26.20;;;15.15;;
52124;SDS011;38119;52.710;6.398;2024-01-06T04:54:44;27.38;;;16.17;;
52124;SDS011;38119;52.710;6.398;2024-01-06T04:57:09;26.55;;;14.80;;
52124;SDS011;38119;52.710;6.398;2024-01-06T04:59:35;26.90;;;15.18;;
52124;SDS011;38119;52.710;6.398;2024-01-06T05:02:01;27.40;;;15.40;;
52124;SDS011;38119;52.710;6.398;2024-01-06T05:04:26;28.20;;;15.27;;
52124;SDS011;38119;52.710;6.398;2024-01-06T05:06:52;29.33;;;15.60;;
52124;SDS011;38119;52.710;6.398;2024-01-06T05:09:18;28.15;;;14.98;;
52124;SDS011;38119;52.710;6.398;2024-01-06T05:11:44;28.30;;;14.38;;
52124;SDS011;38119;52.710;6.398;2024-01-06T05:14:12;28.05;;;15.32;;
52124;SDS011;38119;52.710;6.398;2024-01-06T05:16:38;24.67;;;14.43;;
52124;SDS011;38119;52.710;6.398;2024-01-06T05:19:03;25.17;;;14.48;;
52124;SDS011;38119;52.710;6.398;2024-01-06T05:21:29;30.13;;;15.32;;
52124;SDS011;38119;52.710;6.398;2024-01-06T05:23:55;26.20;;;14.73;;
52124;SDS011;38119;52.710;6.398;2024-01-06T05:26:20;25.83;;;14.00;;
52124;SDS011;38119;52.710;6.398;2024-01-06T05:28:46;26.63;;;14.80;;
52124;SDS011;38119;52.710;6.398;2024-01-06T05:31:12;23.73;;;14.07;;
52124;SDS011;38119;52.710;6.398;2024-01-06T05:33:37;27.30;;;15.52;;
52124;SDS011;38119;52.710;6.398;2024-01-06T05:36:03;26.48;;;15.60;;
52124;SDS011;38119;52.710;6.398;2024-01-06T05:38:29;30.40;;;15.82;;
52124;SDS011;38119;52.710;6.398;2024-01-06T05:40:54;26.65;;;14.65;;
52124;SDS011;38119;52.710;6.398;2024-01-06T05:43:20;26.20;;;15.05;;
52124;SDS011;38119;52.710;6.398;2024-01-06T05:45:46;28.08;;;15.85;;
52124;SDS011;38119;52.710;6.398;2024-01-06T05:48:11;30.90;;;16.20;;
52124;SDS011;38119;52.710;6.398;2024-01-06T05:50:37;28.35;;;15.35;;
52124;SDS011;38119;52.710;6.398;2024-01-06T05:53:04;28.08;;;15.55;;
52124;SDS011;38119;52.710;6.398;2024-01-06T05:55:30;27.17;;;14.40;;
52124;SDS011;38119;52.710;6.398;2024-01-06T05:57:55;21.60;;;13.23;;
52124;SDS011;38119;52.710;6.398;2024-01-06T06:00:21;24.02;;;13.48;;
52124;SDS011;38119;52.710;6.398;2024-01-06T06:02:47;23.45;;;13.63;;
52124;SDS011;38119;52.710;6.398;2024-01-06T06:05:12;24.00;;;13.00;;
52124;SDS011;38119;52.710;6.398;2024-01-06T06:07:38;22.92;;;12.27;;
52124;SDS011;38119;52.710;6.398;2024-01-06T06:10:05;20.90;;;12.57;;
52124;SDS011;38119;52.710;6.398;2024-01-06T06:12:32;23.48;;;13.27;;
52124;SDS011;38119;52.710;6.398;2024-01-06T06:14:58;23.58;;;12.88;;
52124;SDS011;38119;52.710;6.398;2024-01-06T06:17:23;25.45;;;13.13;;
52124;SDS011;38119;52.710;6.398;2024-01-06T06:19:50;22.20;;;12.05;;
52124;SDS011;38119;52.710;6.398;2024-01-06T06:22:16;23.88;;;13.63;;
52124;SDS011;38119;52.710;6.398;2024-01-06T06:24:42;26.17;;;13.82;;
52124;SDS011;38119;52.710;6.398;2024-01-06T06:27:08;24.38;;;13.32;;
52124;SDS011;38119;52.710;6.398;2024-01-06T06:29:33;24.15;;;13.68;;
52124;SDS011;38119;52.710;6.398;2024-01-06T06:31:59;21.42;;;12.88;;
52124;SDS011;38119;52.710;6.398;2024-01-06T06:34:25;24.50;;;13.13;;
52124;SDS011;38119;52.710;6.398;2024-01-06T06:36:50;21.58;;;12.10;;
52124;SDS011;38119;52.710;6.398;2024-01-06T06:39:16;22.67;;;13.05;;
52124;SDS011;38119;52.710;6.398;2024-01-06T06:41:43;20.23;;;12.90;;
52124;SDS011;38119;52.710;6.398;2024-01-06T06:44:09;22.27;;;12.93;;
52124;SDS011;38119;52.710;6.398;2024-01-06T06:46:35;20.83;;;12.80;;
52124;SDS011;38119;52.710;6.398;2024-01-06T06:49:01;21.20;;;12.93;;
52124;SDS011;38119;52.710;6.398;2024-01-06T06:51:27;21.65;;;13.45;;
52124;SDS011;38119;52.710;6.398;2024-01-06T06:53:55;22.30;;;14.02;;
52124;SDS011;38119;52.710;6.398;2024-01-06T06:56:20;22.55;;;14.05;;
52124;SDS011;38119;52.710;6.398;2024-01-06T06:58:46;22.13;;;13.20;;
52124;SDS011;38119;52.710;6.398;2024-01-06T07:01:15;23.65;;;14.25;;
52124;SDS011;38119;52.710;6.398;2024-01-06T07:03:41;29.95;;;14.55;;
52124;SDS011;38119;52.710;6.398;2024-01-06T07:06:07;28.27;;;14.80;;
52124;SDS011;38119;52.710;6.398;2024-01-06T07:08:40;26.25;;;14.77;;
52124;SDS011;38119;52.710;6.398;2024-01-06T07:11:07;24.40;;;14.13;;
52124;SDS011;38119;52.710;6.398;2024-01-06T07:13:32;21.92;;;13.20;;
52124;SDS011;38119;52.710;6.398;2024-01-06T07:15:58;23.80;;;14.25;;
52124;SDS011;38119;52.710;6.398;2024-01-06T07:18:24;23.63;;;13.55;;
52124;SDS011;38119;52.710;6.398;2024-01-06T07:20:50;22.83;;;13.95;;
52124;SDS011;38119;52.710;6.398;2024-01-06T07:23:17;21.83;;;13.88;;
52124;SDS011;38119;52.710;6.398;2024-01-06T07:25:43;24.25;;;13.48;;
52124;SDS011;38119;52.710;6.398;2024-01-06T07:28:09;22.33;;;14.10;;
52124;SDS011;38119;52.710;6.398;2024-01-06T07:30:34;24.80;;;14.20;;
52124;SDS011;38119;52.710;6.398;2024-01-06T07:33:00;23.80;;;13.95;;
52124;SDS011;38119;52.710;6.398;2024-01-06T07:35:25;22.10;;;13.60;;
52124;SDS011;38119;52.710;6.398;2024-01-06T07:37:51;23.60;;;13.90;;
52124;SDS011;38119;52.710;6.398;2024-01-06T07:40:16;22.83;;;13.82;;
52124;SDS011;38119;52.710;6.398;2024-01-06T07:42:42;23.67;;;13.52;;
52124;SDS011;38119;52.710;6.398;2024-01-06T07:45:09;25.27;;;14.50;;
52124;SDS011;38119;52.710;6.398;2024-01-06T07:47:34;27.15;;;14.55;;
52124;SDS011;38119;52.710;6.398;2024-01-06T07:50:00;24.00;;;14.10;;
52124;SDS011;38119;52.710;6.398;2024-01-06T07:52:26;23.02;;;13.52;;
52124;SDS011;38119;52.710;6.398;2024-01-06T07:54:52;22.75;;;13.77;;
52124;SDS011;38119;52.710;6.398;2024-01-06T07:57:17;23.50;;;14.32;;
52124;SDS011;38119;52.710;6.398;2024-01-06T07:59:43;25.02;;;14.20;;
52124;SDS011;38119;52.710;6.398;2024-01-06T08:02:08;27.35;;;14.88;;
52124;SDS011;38119;52.710;6.398;2024-01-06T08:04:34;24.98;;;14.90;;
52124;SDS011;38119;52.710;6.398;2024-01-06T08:07:01;25.95;;;15.00;;
52124;SDS011;38119;52.710;6.398;2024-01-06T08:09:27;24.35;;;13.57;;
52124;SDS011;38119;52.710;6.398;2024-01-06T08:11:52;23.55;;;13.38;;
52124;SDS011;38119;52.710;6.398;2024-01-06T08:14:18;22.77;;;13.23;;
52124;SDS011;38119;52.710;6.398;2024-01-06T08:16:44;21.80;;;13.60;;
52124;SDS011;38119;52.710;6.398;2024-01-06T08:19:11;24.25;;;14.70;;
52124;SDS011;38119;52.710;6.398;2024-01-06T08:21:36;23.80;;;14.60;;
52124;SDS011;38119;52.710;6.398;2024-01-06T08:24:02;22.33;;;14.68;;
52124;SDS011;38119;52.710;6.398;2024-01-06T08:26:29;18.17;;;11.82;;
52124;SDS011;38119;52.710;6.398;2024-01-06T08:28:54;18.95;;;11.77;;
52124;SDS011;38119;52.710;6.398;2024-01-06T08:31:21;18.70;;;12.75;;
52124;SDS011;38119;52.710;6.398;2024-01-06T08:33:48;20.55;;;12.63;;
52124;SDS011;38119;52.710;6.398;2024-01-06T08:36:14;19.00;;;12.35;;
52124;SDS011;38119;52.710;6.398;2024-01-06T08:38:40;17.55;;;12.05;;
52124;SDS011;38119;52.710;6.398;2024-01-06T08:41:05;20.90;;;14.00;;
52124;SDS011;38119;52.710;6.398;2024-01-06T08:43:31;18.25;;;12.38;;
52124;SDS011;38119;52.710;6.398;2024-01-06T08:45:57;19.95;;;13.60;;
52124;SDS011;38119;52.710;6.398;2024-01-06T08:48:22;17.80;;;12.10;;
52124;SDS011;38119;52.710;6.398;2024-01-06T08:50:48;17.98;;;11.82;;
52124;SDS011;38119;52.710;6.398;2024-01-06T08:53:15;15.95;;;11.40;;
52124;SDS011;38119;52.710;6.398;2024-01-06T08:55:41;19.10;;;12.20;;
52124;SDS011;38119;52.710;6.398;2024-01-06T08:58:07;16.73;;;11.63;;
52124;SDS011;38119;52.710;6.398;2024-01-06T09:00:33;19.55;;;12.30;;
52124;SDS011;38119;52.710;6.398;2024-01-06T09:03:02;18.55;;;11.73;;
52124;SDS011;38119;52.710;6.398;2024-01-06T09:05:31;18.10;;;11.73;;
52124;SDS011;38119;52.710;6.398;2024-01-06T09:07:58;16.45;;;10.98;;
52124;SDS011;38119;52.710;6.398;2024-01-06T09:10:24;20.15;;;13.00;;
52124;SDS011;38119;52.710;6.398;2024-01-06T09:12:50;19.10;;;12.63;;
52124;SDS011;38119;52.710;6.398;2024-01-06T09:15:16;21.38;;;12.75;;
52124;SDS011;38119;52.710;6.398;2024-01-06T09:17:42;20.45;;;12.75;;
52124;SDS011;38119;52.710;6.398;2024-01-06T09:20:07;18.92;;;12.65;;
52124;SDS011;38119;52.710;6.398;2024-01-06T09:22:34;20.52;;;13.00;;
52124;SDS011;38119;52.710;6.398;2024-01-06T09:25:00;21.00;;;12.60;;
52124;SDS011;38119;52.710;6.398;2024-01-06T09:27:26;19.38;;;12.15;;
52124;SDS011;38119;52.710;6.398;2024-01-06T09:29:54;18.92;;;12.98;;
52124;SDS011;38119;52.710;6.398;2024-01-06T09:32:20;18.92;;;12.82;;
52124;SDS011;38119;52.710;6.398;2024-01-06T09:34:47;17.48;;;12.45;;
52124;SDS011;38119;52.710;6.398;2024-01-06T09:37:13;19.50;;;11.93;;
52124;SDS011;38119;52.710;6.398;2024-01-06T09:39:39;18.30;;;12.23;;
52124;SDS011;38119;52.710;6.398;2024-01-06T09:42:04;18.15;;;12.15;;
52124;SDS011;38119;52.710;6.398;2024-01-06T09:44:30;21.08;;;12.27;;
52124;SDS011;38119;52.710;6.398;2024-01-06T09:47:03;19.20;;;12.80;;
52124;SDS011;38119;52.710;6.398;2024-01-06T09:49:31;20.92;;;13.93;;
52124;SDS011;38119;52.710;6.398;2024-01-06T09:54:30;19.50;;;12.15;;
52124;SDS011;38119;52.710;6.398;2024-01-06T09:57:00;17.60;;;12.18;;
52124;SDS011;38119;52.710;6.398;2024-01-06T09:59:28;19.40;;;12.05;;
52124;SDS011;38119;52.710;6.398;2024-01-06T10:01:59;16.15;;;11.40;;
52124;SDS011;38119;52.710;6.398;2024-01-06T10:04:25;20.10;;;12.55;;
52124;SDS011;38119;52.710;6.398;2024-01-06T10:06:51;20.08;;;12.85;;
52124;SDS011;38119;52.710;6.398;2024-01-06T10:09:22;20.10;;;12.82;;
52124;SDS011;38119;52.710;6.398;2024-01-06T10:11:54;20.17;;;13.13;;
52124;SDS011;38119;52.710;6.398;2024-01-06T10:14:20;20.05;;;14.00;;
52124;SDS011;38119;52.710;6.398;2024-01-06T10:16:46;21.13;;;14.77;;
52124;SDS011;38119;52.710;6.398;2024-01-06T10:19:14;20.92;;;13.95;;
52124;SDS011;38119;52.710;6.398;2024-01-06T10:21:39;19.98;;;13.68;;
52124;SDS011;38119;52.710;6.398;2024-01-06T10:24:07;19.83;;;13.52;;
52124;SDS011;38119;52.710;6.398;2024-01-06T10:26:33;20.17;;;13.20;;
52124;SDS011;38119;52.710;6.398;2024-01-06T10:28:59;16.88;;;12.38;;
52124;SDS011;38119;52.710;6.398;2024-01-06T10:31:25;21.77;;;14.65;;
52124;SDS011;38119;52.710;6.398;2024-01-06T10:33:51;19.33;;;13.27;;
52124;SDS011;38119;52.710;6.398;2024-01-06T10:36:17;18.58;;;13.23;;
52124;SDS011;38119;52.710;6.398;2024-01-06T10:38:44;19.02;;;13.25;;
52124;SDS011;38119;52.710;6.398;2024-01-06T10:41:10;20.50;;;12.77;;
52124;SDS011;38119;52.710;6.398;2024-01-06T10:43:37;18.73;;;12.32;;
52124;SDS011;38119;52.710;6.398;2024-01-06T10:46:06;17.55;;;11.95;;
52124;SDS011;38119;52.710;6.398;2024-01-06T10:48:35;17.45;;;12.50;;
52124;SDS011;38119;52.710;6.398;2024-01-06T10:51:09;19.13;;;12.20;;
52124;SDS011;38119;52.710;6.398;2024-01-06T10:53:36;18.42;;;12.55;;
52124;SDS011;38119;52.710;6.398;2024-01-06T10:56:05;18.48;;;12.27;;
52124;SDS011;38119;52.710;6.398;2024-01-06T10:58:32;18.45;;;12.18;;
52124;SDS011;38119;52.710;6.398;2024-01-06T11:01:02;16.42;;;11.38;;
52124;SDS011;38119;52.710;6.398;2024-01-06T11:03:29;18.88;;;11.85;;
52124;SDS011;38119;52.710;6.398;2024-01-06T11:05:56;18.02;;;12.43;;
52124;SDS011;38119;52.710;6.398;2024-01-06T11:08:24;18.33;;;12.23;;
52124;SDS011;38119;52.710;6.398;2024-01-06T11:10:51;17.63;;;11.77;;
52124;SDS011;38119;52.710;6.398;2024-01-06T11:13:21;16.98;;;11.27;;
52124;SDS011;38119;52.710;6.398;2024-01-06T11:15:48;15.15;;;10.75;;
52124;SDS011;38119;52.710;6.398;2024-01-06T11:21:15;18.25;;;12.50;;
52124;SDS011;38119;52.710;6.398;2024-01-06T11:26:50;19.58;;;13.38;;
52124;SDS011;38119;52.710;6.398;2024-01-06T11:29:18;19.70;;;13.02;;
52124;SDS011;38119;52.710;6.398;2024-01-06T11:32:17;18.77;;;12.38;;
52124;SDS011;38119;52.710;6.398;2024-01-06T11:34:49;17.10;;;11.48;;
52124;SDS011;38119;52.710;6.398;2024-01-06T11:37:17;18.48;;;12.15;;
52124;SDS011;38119;52.710;6.398;2024-01-06T11:39:44;17.77;;;11.43;;
52124;SDS011;38119;52.710;6.398;2024-01-06T11:42:11;18.48;;;12.05;;
52124;SDS011;38119;52.710;6.398;2024-01-06T11:44:39;18.50;;;11.43;;
52124;SDS011;38119;52.710;6.398;2024-01-06T11:47:10;17.60;;;11.75;;
52124;SDS011;38119;52.710;6.398;2024-01-06T11:49:39;17.67;;;11.55;;
52124;SDS011;38119;52.710;6.398;2024-01-06T11:52:10;18.50;;;11.95;;
52124;SDS011;38119;52.710;6.398;2024-01-06T11:54:37;19.75;;;12.38;;
52124;SDS011;38119;52.710;6.398;2024-01-06T11:57:05;17.27;;;12.15;;
52124;SDS011;38119;52.710;6.398;2024-01-06T11:59:33;17.88;;;11.93;;
52124;SDS011;38119;52.710;6.398;2024-01-06T12:01:58;17.40;;;11.48;;
52124;SDS011;38119;52.710;6.398;2024-01-06T12:04:24;19.50;;;12.18;;
52124;SDS011;38119;52.710;6.398;2024-01-06T12:06:52;23.65;;;14.07;;
52124;SDS011;38119;52.710;6.398;2024-01-06T12:09:17;17.33;;;11.45;;
52124;SDS011;38119;52.710;6.398;2024-01-06T12:11:44;18.98;;;12.07;;
52124;SDS011;38119;52.710;6.398;2024-01-06T12:14:11;25.02;;;11.88;;
52124;SDS011;38119;52.710;6.398;2024-01-06T12:16:37;16.25;;;11.25;;
52124;SDS011;38119;52.710;6.398;2024-01-06T12:19:03;16.63;;;11.82;;
52124;SDS011;38119;52.710;6.398;2024-01-06T12:21:29;17.25;;;11.88;;
52124;SDS011;38119;52.710;6.398;2024-01-06T12:24:18;18.40;;;12.07;;
52124;SDS011;38119;52.710;6.398;2024-01-06T12:26:45;28.73;;;18.40;;
52124;SDS011;38119;52.710;6.398;2024-01-06T12:29:12;32.80;;;20.70;;
52124;SDS011;38119;52.710;6.398;2024-01-06T12:31:42;29.95;;;18.20;;
52124;SDS011;38119;52.710;6.398;2024-01-06T12:34:09;27.58;;;17.40;;
52124;SDS011;38119;52.710;6.398;2024-01-06T12:36:39;38.85;;;25.45;;
52124;SDS011;38119;52.710;6.398;2024-01-06T12:39:06;25.23;;;16.30;;
52124;SDS011;38119;52.710;6.398;2024-01-06T12:41:38;20.85;;;13.73;;
52124;SDS011;38119;52.710;6.398;2024-01-06T12:44:07;23.75;;;16.60;;
52124;SDS011;38119;52.710;6.398;2024-01-06T12:46:36;28.33;;;18.30;;
52124;SDS011;38119;52.710;6.398;2024-01-06T12:49:01;22.25;;;14.18;;
52124;SDS011;38119;52.710;6.398;2024-01-06T12:51:27;20.50;;;12.60;;
52124;SDS011;38119;52.710;6.398;2024-01-06T12:53:53;17.88;;;12.20;;
52124;SDS011;38119;52.710;6.398;2024-01-06T12:56:19;18.27;;;11.65;;
52124;SDS011;38119;52.710;6.398;2024-01-06T12:58:45;19.17;;;12.48;;
52124;SDS011;38119;52.710;6.398;2024-01-06T13:01:10;20.73;;;11.85;;
52124;SDS011;38119;52.710;6.398;2024-01-06T13:03:36;17.42;;;11.40;;
52124;SDS011;38119;52.710;6.398;2024-01-06T13:06:02;20.55;;;13.30;;
52124;SDS011;38119;52.710;6.398;2024-01-06T13:08:28;20.20;;;12.70;;
52124;SDS011;38119;52.710;6.398;2024-01-06T13:10:57;19.58;;;12.98;;
52124;SDS011;38119;52.710;6.398;2024-01-06T13:13:23;19.73;;;13.93;;
52124;SDS011;38119;52.710;6.398;2024-01-06T13:15:48;21.40;;;13.77;;
52124;SDS011;38119;52.710;6.398;2024-01-06T13:18:14;20.42;;;13.95;;
52124;SDS011;38119;52.710;6.398;2024-01-06T13:20:41;24.85;;;14.50;;
52124;SDS011;38119;52.710;6.398;2024-01-06T13:23:08;26.08;;;15.60;;
52124;SDS011;38119;52.710;6.398;2024-01-06T13:25:37;20.65;;;14.32;;
52124;SDS011;38119;52.710;6.398;2024-01-06T13:28:06;23.65;;;13.13;;
52124;SDS011;38119;52.710;6.398;2024-01-06T13:30:32;19.40;;;12.40;;
52124;SDS011;38119;52.710;6.398;2024-01-06T13:32:58;21.10;;;13.18;;
52124;SDS011;38119;52.710;6.398;2024-01-06T13:35:24;20.02;;;12.07;;
52124;SDS011;38119;52.710;6.398;2024-01-06T13:37:50;24.15;;;14.02;;
52124;SDS011;38119;52.710;6.398;2024-01-06T13:40:17;23.08;;;16.33;;
52124;SDS011;38119;52.710;6.398;2024-01-06T13:42:46;22.88;;;15.18;;
52124;SDS011;38119;52.710;6.398;2024-01-06T13:45:12;22.25;;;14.07;;
52124;SDS011;38119;52.710;6.398;2024-01-06T13:47:38;20.60;;;12.73;;
52124;SDS011;38119;52.710;6.398;2024-01-06T13:50:07;20.50;;;13.05;;
52124;SDS011;38119;52.710;6.398;2024-01-06T13:52:33;19.77;;;13.88;;
52124;SDS011;38119;52.710;6.398;2024-01-06T13:55:00;22.45;;;16.42;;
52124;SDS011;38119;52.710;6.398;2024-01-06T13:57:26;20.88;;;13.32;;
52124;SDS011;38119;52.710;6.398;2024-01-06T13:59:51;20.55;;;13.27;;
52124;SDS011;38119;52.710;6.398;2024-01-06T14:02:17;21.80;;;13.98;;
52124;SDS011;38119;52.710;6.398;2024-01-06T14:04:43;23.00;;;15.25;;
52124;SDS011;38119;52.710;6.398;2024-01-06T14:07:08;24.02;;;15.50;;
52124;SDS011;38119;52.710;6.398;2024-01-06T14:09:35;23.75;;;15.70;;
52124;SDS011;38119;52.710;6.398;2024-01-06T14:12:01;23.17;;;14.57;;
52124;SDS011;38119;52.710;6.398;2024-01-06T14:14:27;19.58;;;12.75;;
52124;SDS011;38119;52.710;6.398;2024-01-06T14:16:52;20.88;;;13.50;;
52124;SDS011;38119;52.710;6.398;2024-01-06T14:19:18;23.42;;;15.23;;
52124;SDS011;38119;52.710;6.398;2024-01-06T14:21:43;22.35;;;14.77;;
52124;SDS011;38119;52.710;6.398;2024-01-06T14:24:09;23.05;;;14.68;;